Friendship, New York
Current Conditions -  °F | °C
As of 11:03 AM on Thursday 23 Oct 2014 (Local Time) from KELZ Reporting Station
Broken Clouds Broken Clouds  
Wind Chill: 40°   Ceiling: 3400
Heat Index: 46°   Visibility: 10mi
Dew Point: 38°   Wind: 14mph
Humidity: 73%   Direction: 350°N
Pressure: 30.05"   Gusts: 24mph
Location:  42.21°N, 78.14°W
Report Text: KELZ 231503Z AUTO 35012G21KT 330V030 10SM SCT012 BKN034 08/03 A3005 RMK AO2 T00780033
Loading
Personal Weather Stations






























Interactive Weather Map
Tropical Storm Tracking
New forecast layout! Learn more

10-Day Weather Forecast

Advertisements
Track Severe Weather on mobile